Time;durP1;ratioP1;P1;durP2;ratioP2;P2;SDS_P1;SDS_P2;PMS_P1;PMS_P2;Temp;Humidity;BMP_temperature;BMP_pressure;BME280_temperature;BME280_humidity;BME280_pressure;Samples;Min_cycle;Max_cycle;Signal;HPM_P1;HPM_P2
2021/09/02 00:02:11;;;;;;;8.98;5.47;;;;;;;17.42;55.13;97086.75;5083955;28;20241;-58
2021/09/02 00:04:37;;;;;;;7.57;5.82;;;;;;;17.42;55.53;97089.56;5083439;28;20051;-66
2021/09/02 00:07:04;;;;;;;8.88;6.22;;;;;;;16.98;55.93;97028.75;5083127;28;20054;-58
2021/09/02 00:09:31;;;;;;;6.60;5.88;;;;;;;17.39;56.00;97119.19;5083683;28;20450;-59
2021/09/02 00:11:58;;;;;;;10.32;6.53;;;;;;;17.42;56.47;97112.75;5083441;28;20052;-60
2021/09/02 00:14:24;;;;;;;6.10;5.53;;;;;;;17.40;56.83;97101.16;5083630;28;20047;-59
2021/09/02 00:16:51;;;;;;;6.65;5.85;;;;;;;17.35;57.85;97098.81;5078514;28;20045;-60
2021/09/02 00:19:18;;;;;;;28.27;12.02;;;;;;;17.18;58.54;97098.97;5063418;28;20052;-67
2021/09/02 00:21:45;;;;;;;19.55;9.18;;;;;;;17.25;59.59;97098.88;5062706;28;20585;-66
2021/09/02 00:24:12;;;;;;;13.45;7.40;;;;;;;17.07;59.12;97095.44;5063283;28;20376;-60
2021/09/02 00:26:42;;;;;;;8.40;6.53;;;;;;;17.08;59.51;97102.63;5061752;28;20098;-66
2021/09/02 00:29:09;;;;;;;8.70;6.03;;;;;;;16.80;58.01;97060.88;5061943;28;20529;-67
2021/09/02 00:31:35;;;;;;;7.38;6.00;;;;;;;17.18;57.82;97107.38;5063172;28;20052;-59
2021/09/02 00:34:02;;;;;;;7.90;6.18;;;;;;;17.19;57.96;97118.16;5062170;28;20052;-59
2021/09/02 00:36:29;;;;;;;6.53;5.78;;;;;;;17.03;57.31;97108.66;5063592;28;20059;-61
2021/09/02 00:38:56;;;;;;;8.02;6.07;;;;;;;16.99;57.88;97105.09;5063138;28;20515;-66
2021/09/02 00:41:23;;;;;;;8.60;5.22;;;;;;;16.99;57.93;97102.31;5063416;28;20055;-66
2021/09/02 00:43:49;;;;;;;7.15;5.40;;;;;;;17.13;57.97;97107.81;5066535;28;20068;-59
2021/09/02 00:46:20;;;;;;;5.82;4.65;;;;;;;16.64;57.47;97025.78;5065245;28;20060;-66
2021/09/02 00:48:51;;;;;;;7.63;5.10;;;;;;;17.29;56.61;97100.44;5065422;28;20056;-59
2021/09/02 00:51:19;;;;;;;5.30;4.78;;;;;;;17.41;56.08;97108.38;5066795;28;20435;-67
2021/09/02 00:53:49;;;;;;;8.40;4.80;;;;;;;17.40;55.98;97100.38;5066621;28;20139;-61
2021/09/02 00:56:16;;;;;;;5.07;4.55;;;;;;;17.42;55.46;97095.16;5066763;28;20076;-60
2021/09/02 00:58:44;;;;;;;5.47;4.63;;;;;;;17.49;55.32;97106.31;5066510;28;20060;-67
2021/09/02 01:01:12;;;;;;;5.05;4.55;;;;;;;17.48;55.23;97096.34;5066335;28;20058;-67
2021/09/02 01:03:39;;;;;;;5.45;4.55;;;;;;;17.49;55.51;97109.94;5066365;28;20135;-60
2021/09/02 01:06:05;;;;;;;6.97;5.60;;;;;;;17.33;56.53;97112.44;5064721;28;20076;-66
2021/09/02 01:08:34;;;;;;;8.73;5.78;;;;;;;17.24;57.41;97114.09;5066898;28;20052;-60
2021/09/02 01:11:01;;;;;;;9.73;5.38;;;;;;;16.76;57.77;97055.28;5066175;28;20063;-68
2021/09/02 01:13:29;;;;;;;9.52;5.65;;;;;;;17.03;59.00;97131.06;5066305;28;20058;-68
2021/09/02 01:15:56;;;;;;;6.90;5.22;;;;;;;16.95;59.64;97118.31;5065880;28;20064;-60
2021/09/02 01:18:23;;;;;;;8.85;5.65;;;;;;;15.36;60.04;96905.91;5081882;28;20200;-67
2021/09/02 01:20:49;;;;;;;7.55;5.82;;;;;;;16.76;59.58;97121.63;5086033;28;20067;-68
2021/09/02 01:23:23;;;;;;;8.45;5.07;;;;;;;16.86;58.99;97137.56;5086444;28;20222;-67
2021/09/02 01:25:50;;;;;;;6.22;5.35;;;;;;;16.94;59.04;97122.31;5086310;28;20048;-67
2021/09/02 01:28:17;;;;;;;5.75;5.05;;;;;;;16.90;60.71;97121.56;5085949;28;20048;-61
2021/09/02 01:30:44;;;;;;;6.03;5.30;;;;;;;16.75;61.13;97126.44;5084188;28;20541;-67
2021/09/02 01:33:16;;;;;;;6.45;5.78;;;;;;;16.55;61.78;97123.34;5085693;28;20052;-67
2021/09/02 01:35:44;;;;;;;8.27;6.03;;;;;;;16.41;62.55;97103.81;5085634;28;20048;-68
2021/09/02 01:38:11;;;;;;;6.25;4.97;;;;;;;16.43;62.55;97109.81;5085790;28;20051;-67
2021/09/02 01:40:39;;;;;;;5.15;4.63;;;;;;;16.67;59.42;97119.28;5085012;28;20054;-60
2021/09/02 01:43:08;;;;;;;5.28;4.68;;;;;;;16.67;59.36;97096.91;5084239;28;20054;-60
2021/09/02 01:45:36;;;;;;;5.60;4.95;;;;;;;16.50;60.13;97081.81;5084054;28;20521;-60
2021/09/02 01:48:04;;;;;;;8.30;4.65;;;;;;;16.60;60.56;97114.53;5085321;28;20139;-67
2021/09/02 01:50:34;;;;;;;6.30;4.93;;;;;;;16.66;59.67;97114.88;5085376;28;20498;-60
2021/09/02 01:53:06;;;;;;;5.22;4.72;;;;;;;16.22;60.06;97056.78;5085071;28;20048;-59
2021/09/02 01:55:34;;;;;;;6.80;5.00;;;;;;;16.64;61.11;97120.13;5085900;28;20055;-60
2021/09/02 01:58:01;;;;;;;5.05;4.63;;;;;;;16.61;60.55;97121.72;5085597;28;20059;-67
2021/09/02 02:00:28;;;;;;;7.43;5.20;;;;;;;16.63;61.03;97133.28;5085128;28;20521;-60
2021/09/02 02:02:55;;;;;;;7.30;5.30;;;;;;;16.40;60.31;97076.25;5085511;28;20151;-61
2021/09/02 02:05:22;;;;;;;5.97;5.25;;;;;;;16.29;62.35;97093.09;5085014;28;20052;-61
2021/09/02 02:07:49;;;;;;;8.27;5.32;;;;;;;16.51;62.22;97111.41;5085423;28;20544;-60
2021/09/02 02:10:19;;;;;;;6.97;5.38;;;;;;;16.59;61.82;97117.75;5085556;28;20070;-67
2021/09/02 02:12:46;;;;;;;6.45;5.25;;;;;;;16.54;62.39;97126.56;5085584;28;20454;-67
2021/09/02 02:15:13;;;;;;;10.18;6.05;;;;;;;16.20;62.61;97084.34;5084649;28;20062;-60
2021/09/02 02:17:41;;;;;;;6.80;5.25;;;;;;;16.48;62.50;97120.59;5079958;28;20063;-68
2021/09/02 02:20:09;;;;;;;8.18;5.75;;;;;;;16.49;63.75;97113.78;5064638;28;20060;-61
2021/09/02 02:22:36;;;;;;;6.53;5.60;;;;;;;16.38;64.29;97118.59;5065028;28;20052;-66
2021/09/02 02:25:05;;;;;;;10.40;6.13;;;;;;;16.35;65.18;97121.41;5064991;28;20048;-60
2021/09/02 02:27:33;;;;;;;9.27;5.90;;;;;;;16.01;65.14;97098.78;5064779;28;20052;-68
2021/09/02 02:30:00;;;;;;;7.93;6.40;;;;;;;15.73;64.99;97054.19;5064219;28;20074;-61
2021/09/02 02:32:26;;;;;;;6.07;5.38;;;;;;;15.47;66.63;97060.25;5064606;28;20694;-67
2021/09/02 02:34:53;;;;;;;7.15;5.30;;;;;;;15.44;67.20;97063.84;5064501;28;20052;-66
2021/09/02 02:37:20;;;;;;;8.50;5.93;;;;;;;15.64;66.87;97100.47;5064253;28;20071;-60
2021/09/02 02:39:47;;;;;;;8.27;6.28;;;;;;;15.81;66.40;97122.78;5064666;28;20514;-60
2021/09/02 02:42:13;;;;;;;7.93;5.80;;;;;;;15.86;66.83;97119.59;5064629;28;20056;-66
2021/09/02 02:44:40;;;;;;;9.05;5.90;;;;;;;15.53;68.10;97089.34;5064434;28;20061;-60
2021/09/02 02:47:09;;;;;;;8.73;5.85;;;;;;;15.66;67.87;97132.41;5062866;28;20057;-66
2021/09/02 02:49:37;;;;;;;7.95;5.70;;;;;;;15.44;69.24;97130.84;5062857;28;20056;-66
2021/09/02 02:52:05;;;;;;;8.10;6.03;;;;;;;15.31;70.09;97135.19;5064297;28;20048;-59
2021/09/02 02:54:32;;;;;;;7.97;5.90;;;;;;;15.29;70.12;97134.78;5064141;28;20048;-69
2021/09/02 02:56:59;;;;;;;8.35;5.70;;;;;;;14.88;71.00;97092.53;5062816;28;20063;-67
2021/09/02 02:59:25;;;;;;;8.45;6.65;;;;;;;15.08;72.42;97129.19;5063965;28;20056;-65
2021/09/02 03:01:52;;;;;;;9.70;6.28;;;;;;;14.72;71.93;97078.16;5062625;28;20064;-67
2021/09/02 03:04:19;;;;;;;10.07;6.60;;;;;;;14.87;72.83;97118.03;5063681;28;20147;-62
2021/09/02 03:06:46;;;;;;;10.52;6.18;;;;;;;14.66;73.11;97118.78;5061719;28;20056;-67
2021/09/02 03:09:13;;;;;;;8.25;6.10;;;;;;;14.49;74.59;97135.44;5062519;28;20056;-67
2021/09/02 03:11:40;;;;;;;8.23;5.95;;;;;;;14.42;75.36;97146.56;5063867;28;20048;-60
2021/09/02 03:14:07;;;;;;;9.40;6.45;;;;;;;14.28;76.14;97113.06;5062941;28;20044;-67
2021/09/02 03:16:33;;;;;;;6.40;5.70;;;;;;;14.31;76.27;97132.59;5064392;28;20553;-67
2021/09/02 03:19:00;;;;;;;12.00;6.07;;;;;;;14.27;76.54;97144.94;5083877;28;20054;-67
2021/09/02 03:21:27;;;;;;;7.25;5.95;;;;;;;14.12;77.78;97132.06;5082715;28;20070;-61
2021/09/02 03:23:53;;;;;;;11.35;6.68;;;;;;;13.53;77.62;97072.13;5083814;28;20482;-60
2021/09/02 03:26:20;;;;;;;9.45;6.38;;;;;;;13.85;78.49;97133.56;5083901;28;20048;-62
2021/09/02 03:28:47;;;;;;;10.20;6.80;;;;;;;13.63;79.01;97083.31;5084223;28;20048;-68
2021/09/02 03:31:14;;;;;;;9.00;5.68;;;;;;;13.83;79.71;97141.50;5083639;28;20064;-67
2021/09/02 03:33:41;;;;;;;10.25;6.65;;;;;;;13.51;79.34;97091.97;5083474;28;20502;-66
2021/09/02 03:36:07;;;;;;;12.80;6.25;;;;;;;13.68;80.09;97141.41;5082507;28;20058;-68
2021/09/02 03:38:34;;;;;;;7.30;6.03;;;;;;;13.60;80.87;97138.94;5083466;28;20048;-67
2021/09/02 03:41:01;;;;;;;9.40;5.95;;;;;;;12.79;80.97;97013.16;5082267;28;20068;-60
2021/09/02 03:43:27;;;;;;;10.85;5.43;;;;;;;13.68;81.13;97140.59;5083814;28;20426;-67
2021/09/02 03:45:54;;;;;;;9.25;5.65;;;;;;;13.40;81.35;97096.66;5083879;28;20441;-68
2021/09/02 03:48:21;;;;;;;11.07;6.63;;;;;;;13.59;81.15;97138.16;5083467;28;20079;-67
2021/09/02 03:50:48;;;;;;;10.55;5.95;;;;;;;13.54;80.16;97105.13;5083261;28;20532;-67
2021/09/02 03:53:14;;;;;;;9.52;6.10;;;;;;;13.59;81.66;97154.06;5082287;28;20422;-67
2021/09/02 03:55:41;;;;;;;10.55;6.45;;;;;;;13.52;81.67;97131.75;5082037;28;20457;-67
2021/09/02 03:58:08;;;;;;;12.73;6.70;;;;;;;13.74;81.78;97160.53;5083362;28;20048;-67
2021/09/02 04:00:36;;;;;;;8.35;6.40;;;;;;;13.82;81.71;97167.72;5083708;28;20060;-67
2021/09/02 04:03:03;;;;;;;8.77;6.00;;;;;;;13.45;80.86;97095.53;5083340;28;20056;-66
2021/09/02 04:05:30;;;;;;;10.68;6.47;;;;;;;14.01;80.92;97170.22;5083134;28;20514;-66
2021/09/02 04:07:57;;;;;;;9.68;6.63;;;;;;;14.13;80.64;97164.34;5083374;28;20074;-60
2021/09/02 04:10:24;;;;;;;11.43;5.93;;;;;;;14.27;78.17;97217.38;5082863;28;20443;-65
2021/09/02 04:12:51;;;;;;;7.82;5.90;;;;;;;14.21;78.54;97163.19;5083139;28;20056;-66
2021/09/02 04:15:17;;;;;;;11.25;6.60;;;;;;;13.77;78.62;97115.22;5083443;28;20509;-59
2021/09/02 04:17:44;;;;;;;9.18;6.00;;;;;;;14.09;78.72;97171.84;5086021;28;20059;-66
2021/09/02 04:20:11;;;;;;;10.73;6.32;;;;;;;13.92;81.04;97172.56;5087317;28;20052;-66
2021/09/02 04:22:38;;;;;;;6.30;5.70;;;;;;;13.64;80.48;97134.22;5086116;28;20052;-59
2021/09/02 04:25:05;;;;;;;7.53;5.93;;;;;;;13.89;80.25;97162.22;5086887;28;20415;-60
2021/09/02 04:27:33;;;;;;;9.93;5.80;;;;;;;14.08;78.79;97181.41;5087211;28;20052;-59
2021/09/02 04:29:59;;;;;;;9.43;6.28;;;;;;;14.21;77.55;97174.31;5087285;28;20067;-59
2021/09/02 04:32:26;;;;;;;26.38;8.68;;;;;;;13.87;80.56;97159.00;5087403;28;20044;-67
2021/09/02 04:34:53;;;;;;;10.68;5.57;;;;;;;13.95;80.68;97180.13;5085733;28;20052;-66
2021/09/02 04:37:19;;;;;;;13.20;7.07;;;;;;;14.04;80.79;97152.72;5086843;28;20058;-67
2021/09/02 04:39:46;;;;;;;8.15;5.35;;;;;;;14.40;78.88;97165.69;5086518;28;20537;-60
2021/09/02 04:42:13;;;;;;;6.65;5.25;;;;;;;14.57;78.15;97170.53;5085533;28;20048;-60
2021/09/02 04:44:39;;;;;;;7.75;5.47;;;;;;;14.78;77.42;97176.16;5086951;28;20052;-66
2021/09/02 04:47:06;;;;;;;10.05;5.03;;;;;;;14.68;76.30;97165.78;5086776;28;20427;-60
2021/09/02 04:49:32;;;;;;;9.68;5.40;;;;;;;14.37;76.49;97088.44;5085053;28;20063;-61
2021/09/02 04:51:59;;;;;;;8.02;5.28;;;;;;;15.05;75.52;97191.34;5085412;28;20055;-59
2021/09/02 04:54:26;;;;;;;10.43;7.22;;;;;;;15.45;74.10;97182.66;5086091;28;20044;-65
2021/09/02 04:56:52;;;;;;;7.93;5.32;;;;;;;15.91;72.23;97177.84;5086825;28;20047;-67
2021/09/02 04:59:19;;;;;;;9.52;5.18;;;;;;;15.75;70.69;97123.59;5086757;28;20443;-66
2021/09/02 05:01:46;;;;;;;9.45;6.03;;;;;;;16.24;69.64;97170.97;5085438;28;20044;-59
2021/09/02 05:04:13;;;;;;;7.60;5.85;;;;;;;16.46;68.62;97181.72;5086442;28;20060;-60
2021/09/02 05:06:39;;;;;;;11.27;6.60;;;;;;;16.38;69.50;97185.72;5086209;28;20238;-67
2021/09/02 05:09:06;;;;;;;10.18;5.47;;;;;;;16.61;69.37;97177.66;5086693;28;20066;-67
2021/09/02 05:11:33;;;;;;;10.02;5.45;;;;;;;16.72;68.91;97182.41;5086474;28;20789;-67
2021/09/02 05:13:59;;;;;;;14.38;6.00;;;;;;;16.81;68.71;97163.16;5086347;28;20043;-67
2021/09/02 05:16:26;;;;;;;10.35;5.22;;;;;;;16.98;68.39;97184.66;5084901;28;20085;-67
2021/09/02 05:18:53;;;;;;;15.02;7.03;;;;;;;17.22;68.49;97192.09;5085892;28;20406;-67
2021/09/02 05:21:20;;;;;;;9.45;5.70;;;;;;;17.30;68.20;97186.06;5085808;28;20048;-66
2021/09/02 05:23:46;;;;;;;9.23;5.70;;;;;;;17.44;66.79;97196.34;5085954;28;20048;-60
2021/09/02 05:26:13;;;;;;;9.30;6.40;;;;;;;17.59;66.42;97193.06;5085775;28;20071;-67
2021/09/02 05:28:40;;;;;;;7.80;5.07;;;;;;;17.80;67.07;97183.66;5084629;28;20044;-60
2021/09/02 05:31:06;;;;;;;6.88;4.43;;;;;;;17.92;65.22;97183.19;5086017;28;20063;-65
2021/09/02 05:33:33;;;;;;;8.55;5.43;;;;;;;17.95;63.60;97182.34;5085704;28;20308;-67
2021/09/02 05:36:01;;;;;;;10.15;5.85;;;;;;;18.20;61.77;97194.09;5085543;28;20482;-68
2021/09/02 05:38:27;;;;;;;7.28;5.28;;;;;;;18.29;60.94;97191.59;5085939;28;20055;-59
2021/09/02 05:40:54;;;;;;;9.45;5.68;;;;;;;18.30;60.64;97198.81;5085642;28;20086;-60
2021/09/02 05:43:21;;;;;;;8.63;4.85;;;;;;;18.50;59.66;97202.63;5084282;28;20541;-59
2021/09/02 05:45:48;;;;;;;6.25;4.43;;;;;;;18.65;57.63;97209.66;5085467;28;20052;-71
2021/09/02 05:48:15;;;;;;;7.38;4.25;;;;;;;18.49;57.19;97161.75;5075399;28;20438;-58
2021/09/02 05:50:42;;;;;;;7.50;5.28;;;;;;;18.56;56.92;97136.41;5065630;28;20060;-67
2021/09/02 05:53:09;;;;;;;8.30;4.47;;;;;;;19.01;56.77;97193.97;5064990;28;20059;-60
2021/09/02 05:55:36;;;;;;;5.10;4.70;;;;;;;19.10;55.77;97174.56;5083391;28;20052;-64
2021/09/02 05:58:04;;;;;;;4.80;4.40;;;;;;;19.02;56.75;97177.88;5082884;28;20055;-62
2021/09/02 06:00:31;;;;;;;5.20;4.70;;;;;;;19.38;54.64;97212.72;5084955;28;20054;-61
2021/09/02 06:02:58;;;;;;;6.35;4.40;;;;;;;19.45;53.41;97207.78;5083925;28;20048;-60
2021/09/02 06:05:26;;;;;;;6.05;4.30;;;;;;;17.36;52.39;96859.59;5081694;28;20052;-64
2021/09/02 06:07:53;;;;;;;5.13;4.30;;;;;;;19.65;52.02;97209.91;5064065;28;20052;-58
2021/09/02 06:10:20;;;;;;;7.25;4.55;;;;;;;19.13;51.66;97111.94;5064424;28;20055;-63
2021/09/02 06:12:46;;;;;;;7.00;4.22;;;;;;;19.38;52.50;97168.56;5063301;28;20507;-66
2021/09/02 06:15:13;;;;;;;4.80;4.30;;;;;;;19.77;53.08;97203.69;5062915;28;20056;-59
2021/09/02 06:17:40;;;;;;;5.82;4.72;;;;;;;19.84;51.41;97201.53;5071375;28;20127;-62
2021/09/02 06:20:07;;;;;;;5.05;4.60;;;;;;;19.89;50.72;97197.44;5083395;28;20052;-64
2021/09/02 06:22:34;;;;;;;6.10;4.65;;;;;;;19.46;51.32;97170.03;5084727;28;20048;-71
2021/09/02 06:25:06;;;;;;;5.10;4.63;;;;;;;19.92;51.80;97196.59;5084871;28;20052;-61
2021/09/02 06:27:33;;;;;;;5.25;4.75;;;;;;;19.89;51.79;97146.81;5084022;28;20130;-62
2021/09/02 06:30:00;;;;;;;5.32;4.65;;;;;;;19.82;51.62;97146.97;5083228;28;20066;-67
2021/09/02 06:32:26;;;;;;;5.70;4.60;;;;;;;20.60;50.13;97197.75;5084841;28;20079;-67
2021/09/02 06:34:53;;;;;;;5.30;4.80;;;;;;;20.67;50.30;97194.81;5084643;28;20048;-61
2021/09/02 06:37:20;;;;;;;5.28;4.78;;;;;;;20.81;51.06;97194.53;5082669;28;20055;-61
2021/09/02 06:39:47;;;;;;;6.30;5.07;;;;;;;20.51;50.24;97127.19;5084465;28;20098;-68
2021/09/02 06:42:13;;;;;;;6.70;5.38;;;;;;;21.16;50.82;97196.63;5079319;28;20071;-65
2021/09/02 06:44:40;;;;;;;7.50;5.18;;;;;;;21.11;49.67;97182.22;5064092;28;20058;-61
2021/09/02 06:47:07;;;;;;;7.28;5.75;;;;;;;21.10;49.47;97181.47;5063905;28;20494;-60
2021/09/02 06:49:34;;;;;;;5.25;4.75;;;;;;;20.96;50.10;97165.66;5062881;28;20059;-61
2021/09/02 06:52:01;;;;;;;5.32;4.82;;;;;;;21.06;49.05;97124.38;5062619;28;20048;-67
2021/09/02 06:54:27;;;;;;;7.57;4.78;;;;;;;21.32;49.84;97216.38;5064384;28;20515;-67
2021/09/02 06:56:54;;;;;;;6.20;5.47;;;;;;;21.55;49.44;97178.78;5064208;28;20056;-61
2021/09/02 06:59:21;;;;;;;6.97;5.30;;;;;;;21.63;50.05;97181.00;5061906;28;20056;-66
2021/09/02 07:01:48;;;;;;;5.25;4.80;;;;;;;21.79;49.11;97183.88;5064079;28;20054;-60
2021/09/02 07:04:15;;;;;;;7.07;5.30;;;;;;;21.51;49.60;97184.53;5063637;28;20053;-60
2021/09/02 07:06:42;;;;;;;6.70;4.85;;;;;;;21.73;48.50;97157.41;5062287;28;20048;-60
2021/09/02 07:09:08;;;;;;;6.57;5.90;;;;;;;21.88;49.44;97181.22;5063668;28;20519;-61
2021/09/02 07:11:35;;;;;;;5.30;4.85;;;;;;;21.27;49.38;97174.63;5063587;28;20563;-61
2021/09/02 07:14:03;;;;;;;5.55;5.05;;;;;;;21.45;50.07;97177.81;5063111;28;20107;-61
2021/09/02 07:16:31;;;;;;;5.43;4.80;;;;;;;21.68;50.07;97185.34;5065189;28;20515;-62
2021/09/02 07:18:57;;;;;;;7.50;4.68;;;;;;;21.46;48.74;97164.53;5072647;28;20515;-61
2021/09/02 07:21:24;;;;;;;5.05;4.65;;;;;;;21.17;48.98;97074.22;5082827;28;20067;-61
2021/09/02 07:23:51;;;;;;;5.55;4.63;;;;;;;22.06;49.30;97181.56;5079514;28;20138;-65
2021/09/02 07:26:18;;;;;;;6.65;4.47;;;;;;;22.20;47.88;97181.19;5082297;28;20048;-62
2021/09/02 07:28:45;;;;;;;4.75;4.45;;;;;;;21.84;48.08;97112.84;5063137;28;20060;-65
2021/09/02 07:31:12;;;;;;;5.38;4.97;;;;;;;22.03;47.59;97120.38;5062166;28;20071;-64
2021/09/02 07:33:39;;;;;;;7.03;4.55;;;;;;;22.37;46.58;97185.56;5064079;28;20068;-62
2021/09/02 07:36:06;;;;;;;4.43;4.13;;;;;;;22.49;46.92;97184.81;5069337;28;20062;-64
2021/09/02 07:38:33;;;;;;;5.28;4.40;;;;;;;22.41;46.83;97160.84;5082452;28;20517;-60
2021/09/02 07:41:00;;;;;;;4.68;4.18;;;;;;;22.25;46.09;97104.47;5080670;28;20054;-64
2021/09/02 07:43:28;;;;;;;4.85;4.45;;;;;;;22.48;46.29;97135.25;5069460;28;20048;-64
2021/09/02 07:45:55;;;;;;;4.63;4.32;;;;;;;22.55;44.04;97123.00;5073479;28;20067;-65
2021/09/02 07:48:22;;;;;;;4.82;4.43;;;;;;;22.65;45.79;97143.69;5067512;28;20746;-63
2021/09/02 07:50:49;;;;;;;5.25;4.82;;;;;;;22.71;45.10;97181.44;5068742;28;20131;-60
2021/09/02 07:53:15;;;;;;;4.53;4.22;;;;;;;21.46;47.08;97142.78;5065799;28;20048;-61
2021/09/02 07:55:42;;;;;;;5.55;5.00;;;;;;;21.57;46.91;97092.56;5068836;28;20489;-61
2021/09/02 07:58:09;;;;;;;4.90;4.40;;;;;;;22.52;46.76;97185.22;5086683;28;20047;-61
2021/09/02 08:00:37;;;;;;;5.40;4.90;;;;;;;22.74;46.54;97163.59;4385161;28;20003922;-65
2021/09/02 08:03:04;;;;;;;5.07;4.50;;;;;;;22.76;44.96;97184.53;5087254;28;20063;-62
2021/09/02 08:05:31;;;;;;;4.28;3.97;;;;;;;21.94;45.21;97077.91;5084136;28;20503;-61
2021/09/02 08:07:58;;;;;;;4.32;4.03;;;;;;;22.79;45.81;97182.84;5073201;28;20052;-60
2021/09/02 08:10:26;;;;;;;4.57;4.25;;;;;;;22.64;44.36;97167.50;5077001;28;20491;-60
2021/09/02 08:12:54;;;;;;;4.00;3.70;;;;;;;22.22;45.12;97161.78;5069890;28;20853;-67
2021/09/02 08:15:22;;;;;;;4.28;3.85;;;;;;;22.15;45.50;97190.19;5067377;28;20044;-66
2021/09/02 08:17:50;;;;;;;4.35;3.97;;;;;;;21.94;45.24;97134.31;5066618;28;20052;-60
2021/09/02 08:20:18;;;;;;;4.60;4.30;;;;;;;22.42;45.15;97182.22;5065416;28;20044;-67
2021/09/02 08:22:46;;;;;;;5.22;3.97;;;;;;;22.40;44.50;97183.88;5066581;28;20052;-61
2021/09/02 08:25:13;;;;;;;5.07;4.10;;;;;;;22.67;44.86;97181.53;5066831;28;20120;-62
2021/09/02 08:27:42;;;;;;;4.40;4.00;;;;;;;23.06;44.69;97174.75;5066355;28;20064;-62
2021/09/02 08:30:09;;;;;;;4.75;4.03;;;;;;;23.38;43.03;97180.25;5066931;28;20062;-67
2021/09/02 08:32:36;;;;;;;3.97;3.67;;;;;;;23.55;43.31;97167.59;5066621;28;20059;-61
2021/09/02 08:35:03;;;;;;;4.63;4.22;;;;;;;23.58;42.65;97121.44;5066690;28;20438;-67
2021/09/02 08:37:30;;;;;;;4.10;3.80;;;;;;;24.19;41.59;97175.56;5066102;28;20506;-67
2021/09/02 08:39:57;;;;;;;4.20;3.97;;;;;;;24.16;40.67;97182.16;5066547;28;20056;-64
2021/09/02 08:42:24;;;;;;;4.85;4.10;;;;;;;22.54;40.79;96872.16;5071453;28;20060;-67
2021/09/02 08:44:51;;;;;;;5.05;4.65;;;;;;;24.78;40.94;97169.84;5086918;28;20079;-61
2021/09/02 08:47:20;;;;;;;4.95;4.60;;;;;;;25.03;40.45;97164.03;5080602;28;20454;-64
2021/09/02 08:49:48;;;;;;;5.00;4.70;;;;;;;24.94;38.92;97152.59;5069629;28;20431;-65
2021/09/02 08:52:16;;;;;;;4.15;3.85;;;;;;;24.23;39.00;97034.69;5081213;28;20514;-64
2021/09/02 08:54:43;;;;;;;4.75;4.45;;;;;;;24.92;39.33;97112.63;5085293;28;20056;-62
2021/09/02 08:57:10;;;;;;;4.82;4.53;;;;;;;25.15;38.94;97157.47;5077265;28;20074;-61
2021/09/02 08:59:36;;;;;;;4.85;4.55;;;;;;;24.70;39.20;97089.19;5069544;28;20052;-61
2021/09/02 09:02:25;;;;;;;4.53;4.22;;;;;;;25.36;38.43;97163.59;5075902;28;20059;-64
2021/09/02 09:05:06;;;;;;;4.70;4.40;;;;;;;25.55;38.58;97159.59;5065966;28;20522;-62
2021/09/02 09:07:35;;;;;;;6.60;5.10;;;;;;;25.45;38.98;97109.75;5065246;28;20052;-61
2021/09/02 09:10:11;;;;;;;4.57;4.28;;;;;;;25.54;38.64;97158.81;5068246;28;20070;-62
2021/09/02 09:12:50;;;;;;;5.88;5.47;;;;;;;24.98;39.02;97132.63;5079954;28;20412;-66
2021/09/02 09:15:28;;;;;;;4.75;4.45;;;;;;;25.15;39.82;97154.63;5080360;28;20437;-62
2021/09/02 09:18:12;;;;;;;4.78;4.47;;;;;;;24.79;39.64;97136.59;5085819;28;20044;-67
2021/09/02 09:20:40;;;;;;;4.68;4.38;;;;;;;24.52;39.75;97125.84;5068857;28;20074;-66
2021/09/02 09:23:06;;;;;;;4.43;4.10;;;;;;;24.57;39.25;97099.75;5073821;28;20067;-63
2021/09/02 09:25:33;;;;;;;4.80;4.50;;;;;;;23.49;39.78;96903.59;5082351;28;20086;-64
2021/09/02 09:28:00;;;;;;;4.50;4.30;;;;;;;25.24;39.26;97140.50;5082634;28;20507;-60
2021/09/02 09:30:33;;;;;;;4.88;4.57;;;;;;;25.53;38.18;97150.78;5074858;28;20518;-65
2021/09/02 09:33:04;;;;;;;6.13;4.82;;;;;;;25.60;39.38;97133.44;5085609;28;20636;-63
2021/09/02 09:35:36;;;;;;;5.32;4.93;;;;;;;25.95;37.63;97141.28;5078273;28;20127;-62
2021/09/02 09:38:16;;;;;;;5.40;5.00;;;;;;;25.94;37.42;97147.44;5065281;28;20052;-64
2021/09/02 09:40:48;;;;;;;6.25;5.40;;;;;;;25.83;37.75;97136.50;5077287;28;20079;-64
2021/09/02 09:43:25;;;;;;;5.63;5.10;;;;;;;26.13;37.64;97132.81;5065009;28;20066;-64
2021/09/02 09:45:58;;;;;;;5.43;5.07;;;;;;;26.25;36.23;97133.94;5065036;28;20427;-61
2021/09/02 09:48:32;;;;;;;6.05;5.63;;;;;;;26.30;36.20;97136.16;5066559;28;20335;-63
2021/09/02 09:51:17;;;;;;;5.75;5.30;;;;;;;26.53;35.86;97116.44;5064122;28;20052;-63
2021/09/02 09:53:52;;;;;;;5.43;5.13;;;;;;;26.70;36.08;97097.03;5063237;28;20900;-62
2021/09/02 09:56:21;;;;;;;4.97;4.68;;;;;;;26.93;35.47;97138.22;5065720;28;20079;-62
2021/09/02 09:58:49;;;;;;;6.22;5.68;;;;;;;26.73;35.67;97127.34;5077598;28;20147;-64
2021/09/02 10:01:16;;;;;;;6.95;4.88;;;;;;;25.94;35.87;97005.50;5079507;28;20049;-62
2021/09/02 10:03:45;;;;;;;5.90;5.50;;;;;;;26.37;36.37;97118.78;5066298;28;20059;-62
2021/09/02 10:06:12;;;;;;;5.60;5.13;;;;;;;26.49;35.28;97126.41;5083703;28;20518;-65
2021/09/02 10:08:42;;;;;;;5.32;5.03;;;;;;;26.24;35.40;97075.56;5084913;28;20232;-62
2021/09/02 10:11:11;;;;;;;5.13;4.80;;;;;;;25.90;36.61;97129.75;5077822;28;20051;-65
2021/09/02 10:13:39;;;;;;;6.18;5.68;;;;;;;25.75;37.37;97125.94;5073814;28;20048;-65
2021/09/02 10:16:06;;;;;;;5.18;4.88;;;;;;;25.85;37.44;97090.63;5064050;28;20048;-64
2021/09/02 10:18:37;;;;;;;4.60;4.35;;;;;;;26.00;35.73;97083.13;5064081;28;20148;-64
2021/09/02 10:21:08;;;;;;;4.80;4.60;;;;;;;25.94;35.61;97048.06;5064587;28;20527;-65
2021/09/02 10:23:35;;;;;;;5.35;4.75;;;;;;;26.24;35.53;97087.72;5064023;28;20063;-64
2021/09/02 10:26:02;;;;;;;5.20;4.80;;;;;;;26.51;35.40;97101.13;5067715;28;20044;-61
2021/09/02 10:28:34;;;;;;;4.78;4.57;;;;;;;26.71;34.40;97104.31;5082753;28;20056;-65
2021/09/02 10:31:04;;;;;;;4.88;4.57;;;;;;;27.18;34.03;97127.28;5077686;28;20051;-66
2021/09/02 10:33:33;;;;;;;5.75;5.10;;;;;;;27.56;34.05;97118.94;5076359;28;20072;-62
2021/09/02 10:36:21;;;;;;;5.57;5.28;;;;;;;27.67;33.40;97072.88;5070300;28;20561;-62
2021/09/02 10:38:54;;;;;;;5.85;5.28;;;;;;;27.23;35.53;97120.94;5064565;28;20045;-66
2021/09/02 10:41:34;;;;;;;6.05;5.45;;;;;;;26.04;37.34;97114.97;5076608;28;20041;-61
2021/09/02 10:44:05;;;;;;;5.05;4.75;;;;;;;25.48;38.02;97140.03;5076986;28;20045;-65
2021/09/02 10:47:15;;;;;;;5.13;4.78;;;;;;;25.19;39.39;97118.44;5064640;28;20623;-64
2021/09/02 10:49:41;;;;;;;6.22;5.63;;;;;;;25.20;38.69;97066.13;5064283;28;20048;-62
2021/09/02 10:52:28;;;;;;;4.80;4.50;;;;;;;25.37;39.24;97114.13;5062248;28;20049;-63
2021/09/02 10:55:28;;;;;;;5.15;4.82;;;;;;;25.97;39.02;97120.94;5063614;28;20438;-60
2021/09/02 10:57:57;;;;;;;7.85;5.32;;;;;;;25.89;39.42;97139.53;5065928;28;20167;-68
2021/09/02 11:00:41;;;;;;;5.13;4.75;;;;;;;25.73;38.94;97125.59;5063168;28;20504;-60
2021/09/02 11:03:19;;;;;;;5.25;4.85;;;;;;;25.72;39.35;97132.56;5066424;28;20126;-62
2021/09/02 11:05:55;;;;;;;4.40;4.00;;;;;;;25.65;38.93;97118.66;5074311;28;20052;-66
2021/09/02 11:08:32;;;;;;;4.88;4.57;;;;;;;26.41;37.86;97127.97;5071034;28;20102;-71
2021/09/02 11:11:15;;;;;;;5.40;5.05;;;;;;;26.63;37.81;97086.75;5065250;28;20148;-65
2021/09/02 11:13:44;;;;;;;4.75;4.55;;;;;;;26.33;37.56;97135.22;5070670;28;20064;-62
2021/09/02 11:16:21;;;;;;;5.53;4.88;;;;;;;26.30;37.45;97090.72;5090597;28;20514;-65
2021/09/02 11:18:50;;;;;;;4.90;4.60;;;;;;;26.55;37.97;97133.03;5068626;28;20054;-61
2021/09/02 11:21:28;;;;;;;5.60;5.22;;;;;;;26.83;37.78;97128.13;5072144;28;20220;-63
2021/09/02 11:23:57;;;;;;;5.68;4.95;;;;;;;26.31;38.59;97137.75;5061903;28;20052;-65
2021/09/02 11:26:45;;;;;;;5.22;4.90;;;;;;;26.20;37.86;97143.09;5063187;28;20509;-66
2021/09/02 11:29:23;;;;;;;4.32;4.13;;;;;;;26.06;38.92;97144.50;5077261;28;20105;-66
2021/09/02 11:32:02;;;;;;;5.25;4.85;;;;;;;26.03;38.71;97138.97;5074309;28;20052;-63
2021/09/02 11:34:29;;;;;;;5.03;4.70;;;;;;;26.23;39.17;97139.31;5066557;28;20060;-63
2021/09/02 11:36:56;;;;;;;5.07;4.68;;;;;;;25.87;39.13;97076.75;5066352;28;20052;-62
2021/09/02 11:39:31;;;;;;;5.40;5.10;;;;;;;26.64;38.06;97144.41;5081543;28;20048;-62